Time;durP1;ratioP1;P1;durP2;ratioP2;P2;SDS_P1;SDS_P2;PMS_P1;PMS_P2;Temp;Humidity;BMP_temperature;BMP_pressure;BME280_temperature;BME280_humidity;BME280_pressure;Samples;Min_cycle;Max_cycle;Signal;HPM_P1;HPM_P2
2024/01/08 00:01:14;;;;;;;;;23.00;19.33;;;;;1.88;56.96;102025.66;5092298;28;45203;-80
2024/01/08 00:03:39;;;;;;;;;25.00;23.00;;;;;2.12;56.98;102072.81;5095839;28;45384;-80
2024/01/08 00:06:05;;;;;;;;;21.67;15.33;;;;;2.19;56.44;102056.84;5101400;28;44926;-77
2024/01/08 00:08:30;;;;;;;;;26.00;24.67;;;;;2.33;56.18;102055.41;5096209;28;45156;-78
2024/01/08 00:10:56;;;;;;;;;32.33;24.33;;;;;2.21;55.96;102045.41;5091852;28;45095;-78
2024/01/08 00:13:21;;;;;;;;;20.00;18.00;;;;;2.27;56.41;102065.28;5075574;28;47414;-79
2024/01/08 00:15:47;;;;;;;;;26.33;22.33;;;;;2.18;57.15;102063.00;5093264;28;45057;-80
2024/01/08 00:18:12;;;;;;;;;17.67;12.33;;;;;2.16;56.34;102056.97;5093197;28;44985;-77
2024/01/08 00:20:37;;;;;;;;;27.67;21.00;;;;;2.03;56.29;102040.84;5092936;28;45167;-80
2024/01/08 00:23:03;;;;;;;;;19.67;19.33;;;;;2.20;55.83;102076.91;5092519;28;45746;-78
2024/01/08 00:25:28;;;;;;;;;23.67;18.67;;;;;1.89;56.67;102017.75;5091491;28;44919;-78
2024/01/08 00:27:55;;;;;;;;;23.00;20.33;;;;;2.11;56.22;102076.34;5091867;28;45877;-78
2024/01/08 00:30:20;;;;;;;;;25.00;21.33;;;;;1.69;56.79;102021.09;5092303;28;45284;-78
2024/01/08 00:32:46;;;;;;;;;32.67;26.00;;;;;1.95;57.03;102059.47;5072200;28;45399;-78
2024/01/08 00:35:11;;;;;;;;;24.67;22.33;;;;;1.92;56.98;102064.84;5081565;28;44989;-78
2024/01/08 00:37:38;;;;;;;;;23.00;21.00;;;;;1.83;57.24;102060.78;5077822;28;45161;-80
2024/01/08 00:40:06;;;;;;;;;28.67;25.67;;;;;1.87;56.88;102072.03;5084561;28;45140;-80
2024/01/08 00:42:31;;;;;;;;;24.00;21.67;;;;;1.52;56.61;102018.22;5093118;28;46014;-78
2024/01/08 00:44:57;;;;;;;;;28.67;26.67;;;;;1.72;57.05;102064.69;5092478;27;44845;-80
2024/01/08 00:47:22;;;;;;;;;27.67;24.67;;;;;1.28;56.56;101983.28;5093167;28;45012;-77
2024/01/08 00:49:47;;;;;;;;;26.00;23.00;;;;;1.38;56.03;101976.78;5092884;28;45121;-78
2024/01/08 00:52:13;;;;;;;;;21.67;20.00;;;;;1.59;55.22;102018.84;5094728;28;45131;-77
2024/01/08 00:54:38;;;;;;;;;23.67;19.00;;;;;1.95;55.10;102088.31;5084932;28;45378;-77
2024/01/08 00:57:04;;;;;;;;;31.67;26.33;;;;;1.84;55.16;102061.66;5070461;28;45496;-78
2024/01/08 00:59:29;;;;;;;;;20.00;16.33;;;;;1.40;55.74;102001.19;5092729;28;45347;-77
2024/01/08 01:01:54;;;;;;;;;29.33;23.33;;;;;1.87;54.97;102058.06;5093690;28;45186;-77
2024/01/08 01:04:21;;;;;;;;;25.33;22.00;;;;;1.84;55.57;102061.66;5093267;28;45255;-76
2024/01/08 01:06:46;;;;;;;;;23.67;21.33;;;;;1.77;55.04;102074.09;5092675;28;45139;-79
2024/01/08 01:09:12;;;;;;;;;26.33;24.00;;;;;1.71;55.61;102076.09;5093191;28;44841;-75
2024/01/08 01:11:37;;;;;;;;;26.00;22.67;;;;;1.89;55.19;102085.94;5093475;28;45568;-77
2024/01/08 01:14:03;;;;;;;;;32.33;27.33;;;;;1.95;55.29;102075.19;5092736;28;44986;-78
2024/01/08 01:16:29;;;;;;;;;20.67;15.33;;;;;1.99;55.35;102081.19;5092667;28;45137;-77
2024/01/08 01:18:56;;;;;;;;;27.33;21.00;;;;;1.68;55.16;102040.38;5093441;28;44985;-78
2024/01/08 01:21:22;;;;;;;;;29.00;25.33;;;;;1.12;55.12;101961.16;5054140;28;46653;-77
2024/01/08 01:23:48;;;;;;;;;34.33;28.33;;;;;1.61;55.31;102077.34;5072057;28;45557;-78
2024/01/08 01:26:13;;;;;;;;;21.33;21.33;;;;;1.57;55.20;102067.84;5071712;28;45139;-77
2024/01/08 01:28:38;;;;;;;;;21.00;21.00;;;;;1.60;55.19;102057.25;5071197;28;44899;-79
2024/01/08 01:31:04;;;;;;;;;16.67;16.67;;;;;1.80;54.73;102071.41;5052885;28;46310;-77
2024/01/08 01:33:29;;;;;;;;;21.67;18.33;;;;;1.80;55.03;102054.78;5071037;28;45482;-76
2024/01/08 01:35:55;;;;;;;;;23.67;23.67;;;;;1.92;54.06;102079.72;5070916;28;44762;-80
2024/01/08 01:38:21;;;;;;;;;22.33;22.33;;;;;1.78;54.27;102060.09;5051337;28;45431;-80
2024/01/08 01:40:46;;;;;;;;;21.00;16.67;;;;;1.74;54.56;102061.09;5069499;28;45644;-78
2024/01/08 01:43:31;;;;;;;;;16.00;16.00;;;;;1.50;54.73;102034.00;5052801;28;45606;-77
2024/01/08 01:46:06;;;;;;;;;20.33;20.33;;;;;1.85;54.87;102088.72;5070936;28;45439;-76
2024/01/08 01:48:32;;;;;;;;;20.67;19.67;;;;;1.92;54.84;102092.81;5070126;28;45006;-79
2024/01/08 01:50:59;;;;;;;;;17.00;16.67;;;;;1.18;55.18;101972.25;5069686;28;45182;-78
2024/01/08 01:53:24;;;;;;;;;27.00;21.00;;;;;1.84;54.57;102095.75;5087425;28;45081;-77
2024/01/08 01:55:52;;;;;;;;;17.33;15.00;;;;;1.32;54.53;102029.41;5093162;27;45035;-79
2024/01/08 01:58:18;;;;;;;;;12.67;12.00;;;;;1.67;53.96;102101.56;5096511;28;45244;-79
2024/01/08 02:00:43;;;;;;;;;18.67;15.00;;;;;1.51;54.47;102085.50;5095401;28;45787;-78
2024/01/08 02:03:09;;;;;;;;;17.33;12.00;;;;;1.59;54.48;102097.50;5095867;28;45139;-77
2024/01/08 02:05:35;;;;;;;;;12.00;10.67;;;;;1.80;53.91;102096.72;5096472;28;45001;-80
2024/01/08 02:08:00;;;;;;;;;13.67;11.00;;;;;1.22;53.44;102035.91;5077905;28;45195;-79
2024/01/08 02:10:26;;;;;;;;;10.00;10.00;;;;;1.18;53.83;102021.16;5095770;28;45265;-80
2024/01/08 02:12:52;;;;;;;;;18.00;10.67;;;;;1.82;53.92;102094.94;5071005;28;45371;-80
2024/01/08 02:15:17;;;;;;;;;10.00;8.00;;;;;1.73;53.17;102069.88;5095874;28;45063;-77
2024/01/08 02:17:43;;;;;;;;;12.67;10.67;;;;;1.77;53.37;102091.59;5078048;28;45056;-78
2024/01/08 02:20:08;;;;;;;;;10.33;8.67;;;;;1.61;53.07;102085.22;5081143;28;46008;-78
2024/01/08 02:22:41;;;;;;;;;11.67;11.33;;;;;1.77;53.24;102091.59;5075519;28;45061;-77
2024/01/08 02:25:08;;;;;;;;;14.00;14.00;;;;;1.87;53.86;102121.00;5075938;28;45259;-80
2024/01/08 02:27:33;;;;;;;;;14.00;12.00;;;;;1.19;53.82;102035.97;5079505;28;44859;-77
2024/01/08 02:29:59;;;;;;;;;12.00;8.67;;;;;1.58;53.59;102094.00;5078737;28;46131;-78
2024/01/08 02:32:24;;;;;;;;;15.67;12.00;;;;;1.23;54.00;102042.84;5079019;28;45050;-77
2024/01/08 02:34:49;;;;;;;;;11.33;11.33;;;;;1.56;53.83;102092.34;5088326;28;45442;-78
2024/01/08 02:37:15;;;;;;;;;11.33;10.67;;;;;0.33;53.55;101927.19;5095584;28;45196;-77
2024/01/08 02:39:40;;;;;;;;;16.67;9.33;;;;;1.09;54.75;102076.50;5094644;28;45848;-77
2024/01/08 02:42:06;;;;;;;;;12.00;12.00;;;;;1.17;55.08;102093.66;5098605;28;44755;-78
2024/01/08 02:44:31;;;;;;;;;10.67;10.67;;;;;1.28;55.08;102098.56;5082752;28;44883;-77
2024/01/08 02:46:56;;;;;;;;;5.33;4.33;;;;;1.42;54.54;102106.81;5100704;28;45183;-78
2024/01/08 02:49:22;;;;;;;;;7.00;6.33;;;;;1.38;54.93;102086.84;5094979;28;45646;-77
2024/01/08 02:51:47;;;;;;;;;13.33;11.00;;;;;1.11;54.43;102046.72;5074316;28;45260;-78
2024/01/08 02:54:12;;;;;;;;;10.67;10.67;;;;;1.38;54.07;102105.19;5074905;28;45107;-77
2024/01/08 02:56:38;;;;;;;;;19.67;16.67;;;;;1.28;53.95;102080.22;5075029;28;45001;-79
2024/01/08 02:59:06;;;;;;;;;20.33;14.00;;;;;1.28;54.75;102103.78;5074054;28;46227;-78
2024/01/08 03:01:33;;;;;;;;;11.00;6.67;;;;;1.28;54.62;102101.19;5074318;28;45061;-78
2024/01/08 03:03:58;;;;;;;;;19.33;15.00;;;;;1.03;54.52;102040.91;5070906;28;45187;-76
2024/01/08 03:06:23;;;;;;;;;11.67;11.67;;;;;1.42;54.95;102096.34;5055123;28;45542;-75
2024/01/08 03:08:49;;;;;;;;;15.67;13.33;;;;;1.34;54.65;102087.00;5094182;28;45973;-77
2024/01/08 03:11:14;;;;;;;;;16.67;14.67;;;;;1.39;54.75;102080.69;5097688;28;48462;-78
2024/01/08 03:13:39;;;;;;;;;16.00;15.00;;;;;1.28;54.89;102055.78;5099034;28;45001;-76
2024/01/08 03:16:05;;;;;;;;;18.67;15.67;;;;;1.01;54.89;101984.25;5094110;28;44894;-76
2024/01/08 03:18:31;;;;;;;;;16.00;10.00;;;;;1.63;55.10;102093.88;5094332;28;45509;-78
2024/01/08 03:20:56;;;;;;;;;16.00;12.33;;;;;1.76;54.92;102111.72;5077244;28;45244;-76
2024/01/08 03:23:21;;;;;;;;;20.67;16.00;;;;;1.58;54.94;102085.28;5072264;28;45210;-80
2024/01/08 03:25:46;;;;;;;;;13.67;13.00;;;;;1.77;55.11;102115.19;5071225;28;44982;-78
2024/01/08 03:28:13;;;;;;;;;13.33;11.33;;;;;1.88;54.80;102115.69;5071480;28;45404;-79
2024/01/08 03:30:38;;;;;;;;;23.00;21.00;;;;;1.83;54.07;102101.91;5071942;28;45068;-77
2024/01/08 03:33:04;;;;;;;;;16.00;16.00;;;;;1.57;54.38;102073.09;5071634;28;45732;-79
2024/01/08 03:35:29;;;;;;;;;18.33;16.00;;;;;1.57;54.86;102084.44;5071564;28;45174;-77
2024/01/08 03:37:55;;;;;;;;;15.00;14.33;;;;;1.72;54.42;102115.38;5070694;28;45660;-79
2024/01/08 03:40:20;;;;;;;;;22.00;18.67;;;;;1.64;54.40;102106.06;5071102;28;45187;-79
2024/01/08 03:42:47;;;;;;;;;18.67;17.00;;;;;1.69;55.16;102114.63;5071865;28;45308;-78
2024/01/08 03:45:12;;;;;;;;;17.00;15.67;;;;;1.55;55.28;102081.03;5071105;28;45532;-79
2024/01/08 03:47:39;;;;;;;;;18.33;15.67;;;;;1.32;55.63;102042.50;5070907;28;45402;-79
2024/01/08 03:50:07;;;;;;;;;15.67;13.33;;;;;1.72;55.68;102109.28;5082458;28;44930;-79
2024/01/08 03:52:33;;;;;;;;;29.33;20.67;;;;;1.69;55.90;102112.00;5090974;28;45370;-79
2024/01/08 03:54:58;;;;;;;;;19.00;16.67;;;;;1.53;55.97;102106.44;5090902;28;45060;-79
2024/01/08 03:57:24;;;;;;;;;26.33;16.00;;;;;1.45;56.72;102114.56;5091133;28;45136;-77
2024/01/08 03:59:49;;;;;;;;;19.67;19.67;;;;;1.26;56.45;102097.75;5092197;28;45321;-79
2024/01/08 04:02:14;;;;;;;;;16.67;16.00;;;;;1.35;57.21;102113.16;5072706;28;45179;-77
2024/01/08 04:04:42;;;;;;;;;23.00;17.67;;;;;1.35;56.90;102104.44;5090962;28;45788;-76
2024/01/08 04:07:10;;;;;;;;;20.67;16.00;;;;;0.93;55.73;102036.88;5092715;28;45086;-77
2024/01/08 04:09:36;;;;;;;;;16.00;16.00;;;;;0.67;55.68;101982.75;5094419;28;45187;-78
2024/01/08 04:12:04;;;;;;;;;16.33;15.00;;;;;1.37;55.56;102123.56;5095219;28;45121;-78
2024/01/08 04:14:30;;;;;;;;;21.67;17.33;;;;;1.16;55.48;102093.72;5094654;28;45052;-76
2024/01/08 04:16:55;;;;;;;;;19.00;17.33;;;;;1.35;55.69;102120.16;5075561;28;46261;-79
2024/01/08 04:19:21;;;;;;;;;21.00;21.00;;;;;1.25;55.81;102124.84;5089000;27;45321;-77
2024/01/08 04:21:46;;;;;;;;;17.00;17.00;;;;;1.20;55.85;102126.75;5070833;28;45056;-77
2024/01/08 04:24:12;;;;;;;;;13.67;10.33;;;;;1.02;56.05;102106.44;5069197;28;44902;-77
2024/01/08 04:26:37;;;;;;;;;15.67;15.00;;;;;1.09;55.64;102098.31;5070089;28;45218;-76
2024/01/08 04:29:02;;;;;;;;;19.33;19.33;;;;;1.19;55.06;102144.22;5071745;28;45246;-76
2024/01/08 04:31:30;;;;;;;;;11.00;10.00;;;;;1.15;55.28;102137.38;5072961;28;45063;-77
2024/01/08 04:33:55;;;;;;;;;16.67;14.00;;;;;1.12;54.95;102131.41;5073167;28;45153;-77
2024/01/08 04:36:21;;;;;;;;;11.67;11.00;;;;;0.98;54.85;102117.88;5072635;28;45145;-77
2024/01/08 04:38:46;;;;;;;;;14.00;10.67;;;;;1.18;54.86;102149.53;5072083;28;44872;-77
2024/01/08 04:41:18;;;;;;;;;10.00;10.00;;;;;1.03;54.50;102124.69;5072694;28;45084;-77
2024/01/08 04:43:43;;;;;;;;;20.33;17.00;;;;;0.50;54.86;102053.09;5072855;28;45079;-77
2024/01/08 04:46:08;;;;;;;;;21.00;17.67;;;;;0.84;54.85;102150.59;5070627;28;46989;-78
2024/01/08 04:48:35;;;;;;;;;16.67;15.33;;;;;0.47;55.14;102090.69;5071189;28;45188;-77
2024/01/08 04:51:01;;;;;;;;;14.33;14.33;;;;;0.67;54.94;102137.19;5070847;28;45469;-77
2024/01/08 04:53:26;;;;;;;;;17.67;14.00;;;;;0.88;54.76;102127.81;5070413;28;45079;-78
2024/01/08 04:55:51;;;;;;;;;16.33;14.67;;;;;0.85;54.57;102134.00;5070028;28;45536;-76
2024/01/08 04:58:17;;;;;;;;;17.00;15.00;;;;;0.72;54.27;102090.78;5067555;28;45461;-77
2024/01/08 05:00:42;;;;;;;;;18.67;15.33;;;;;0.66;54.19;102098.81;5071719;28;45350;-77
2024/01/08 05:03:12;;;;;;;;;19.33;16.00;;;;;0.98;54.27;102131.81;5051433;28;44873;-76
2024/01/08 05:05:37;;;;;;;;;20.00;18.00;;;;;1.00;54.78;102126.53;5066127;28;45340;-77
2024/01/08 05:08:03;;;;;;;;;16.00;12.67;;;;;1.14;54.29;102137.44;5069031;28;45171;-77
2024/01/08 05:10:29;;;;;;;;;20.33;18.00;;;;;1.19;54.73;102132.91;5070079;28;45168;-76
2024/01/08 05:12:54;;;;;;;;;15.67;14.00;;;;;1.13;54.94;102117.38;5069556;28;45072;-78
2024/01/08 05:15:19;;;;;;;;;18.67;12.67;;;;;1.13;55.14;102136.56;5071078;28;45655;-76
2024/01/08 05:17:45;;;;;;;;;19.33;15.00;;;;;0.99;56.10;102124.81;5070042;28;45037;-78
2024/01/08 05:20:10;;;;;;;;;20.00;17.00;;;;;1.03;54.72;102110.75;5072828;28;44912;-77
2024/01/08 05:22:36;;;;;;;;;19.33;15.33;;;;;1.05;54.21;102124.66;5054260;28;44872;-78
2024/01/08 05:25:01;;;;;;;;;14.67;13.67;;;;;1.08;54.76;102140.25;5071289;28;45717;-77
2024/01/08 05:27:27;;;;;;;;;19.33;16.67;;;;;0.44;54.29;102030.59;5070980;28;44926;-78
2024/01/08 05:29:52;;;;;;;;;19.33;17.67;;;;;0.86;54.27;102121.75;5071098;28;45151;-77
2024/01/08 05:32:17;;;;;;;;;17.67;17.67;;;;;1.18;54.13;102154.75;5073535;28;45071;-77
2024/01/08 05:34:43;;;;;;;;;18.33;18.00;;;;;1.05;53.29;102151.69;5072473;28;45754;-78
2024/01/08 05:37:08;;;;;;;;;19.00;19.00;;;;;0.93;53.73;102149.44;5072261;28;45548;-79
2024/01/08 05:39:34;;;;;;;;;19.00;18.00;;;;;0.88;54.22;102152.22;5071874;28;45339;-77
2024/01/08 05:41:59;;;;;;;;;20.00;16.67;;;;;0.66;53.98;102113.66;5060203;28;45589;-76
2024/01/08 05:44:25;;;;;;;;;22.33;20.00;;;;;0.74;54.88;102151.78;5042208;28;45454;-77
2024/01/08 05:46:50;;;;;;;;;15.00;14.00;;;;;0.75;54.75;102155.25;5074391;28;44839;-79
2024/01/08 05:49:16;;;;;;;;;15.00;15.00;;;;;0.79;54.67;102156.88;5076369;28;45345;-78
2024/01/08 05:51:41;;;;;;;;;22.00;21.33;;;;;0.64;54.35;102118.94;5073220;28;45445;-77
2024/01/08 05:54:06;;;;;;;;;28.00;25.00;;;;;0.90;54.81;102155.66;5072283;28;45304;-77
2024/01/08 05:56:32;;;;;;;;;26.00;22.67;;;;;0.89;54.27;102143.47;5070015;28;45041;-77
2024/01/08 05:58:59;;;;;;;;;25.00;20.67;;;;;0.79;54.37;102110.59;5071826;28;45071;-77
2024/01/08 06:01:24;;;;;;;;;23.33;21.33;;;;;0.93;54.23;102135.50;5072784;28;45129;-76
2024/01/08 06:03:50;;;;;;;;;17.00;14.33;;;;;0.90;54.34;102155.66;5072947;28;45108;-76
2024/01/08 06:06:16;;;;;;;;;20.33;18.67;;;;;0.94;54.41;102160.78;5053987;28;44934;-79
2024/01/08 06:08:41;;;;;;;;;13.33;9.33;;;;;0.80;53.94;102141.16;5072379;28;45192;-79
2024/01/08 06:11:07;;;;;;;;;20.00;16.67;;;;;0.90;53.14;102163.50;5067889;28;45469;-78
2024/01/08 06:13:33;;;;;;;;;20.33;18.33;;;;;0.97;53.41;102155.44;5076903;28;45560;-78
2024/01/08 06:15:58;;;;;;;;;15.00;13.00;;;;;0.95;53.30;102141.53;5114562;27;44898;-77
2024/01/08 06:18:24;;;;;;;;;21.00;19.00;;;;;0.66;53.62;102109.28;5080780;27;44998;-77
2024/01/08 06:20:50;;;;;;;;;19.33;19.00;;;;;0.94;53.58;102142.44;5080749;28;44868;-77
2024/01/08 06:23:16;;;;;;;;;22.33;19.33;;;;;0.90;53.90;102133.84;5083187;28;45218;-78
2024/01/08 06:25:42;;;;;;;;;18.67;17.67;;;;;1.09;53.39;102158.53;5081595;28;45087;-79
2024/01/08 06:28:07;;;;;;;;;19.00;16.00;;;;;1.08;53.65;102161.22;5074856;28;45093;-78
2024/01/08 06:30:33;;;;;;;;;23.33;20.33;;;;;1.21;53.63;102159.94;5056614;28;45165;-78
2024/01/08 06:32:58;;;;;;;;;14.33;13.67;;;;;0.99;53.02;102132.69;5075029;28;45421;-78
2024/01/08 06:35:23;;;;;;;;;22.33;20.67;;;;;1.18;53.64;102165.25;5079247;28;45308;-79
2024/01/08 06:37:49;;;;;;;;;22.33;20.67;;;;;1.14;52.98;102153.16;5073523;28;45139;-77
2024/01/08 06:40:14;;;;;;;;;11.00;11.00;;;;;1.04;53.12;102141.28;5068718;28;45157;-79
2024/01/08 06:42:40;;;;;;;;;18.00;16.00;;;;;1.22;53.19;102177.34;5094221;27;46220;-77
2024/01/08 06:45:05;;;;;;;;;24.67;24.00;;;;;1.21;52.38;102170.41;5093166;27;44843;-78
2024/01/08 06:47:31;;;;;;;;;19.67;18.33;;;;;0.93;52.95;102157.31;5091007;28;45027;-77
2024/01/08 06:49:56;;;;;;;;;29.00;23.00;;;;;0.86;53.38;102143.56;5095470;28;45206;-78
2024/01/08 06:52:21;;;;;;;;;17.67;16.00;;;;;0.91;53.59;102173.06;5095190;28;45304;-78
2024/01/08 06:54:47;;;;;;;;;16.00;14.00;;;;;0.90;53.24;102171.34;5093134;28;45050;-78
2024/01/08 06:57:12;;;;;;;;;14.67;12.67;;;;;0.73;53.75;102136.97;5054610;28;45414;-78
2024/01/08 06:59:38;;;;;;;;;20.33;20.33;;;;;0.95;54.21;102167.72;5073639;28;45008;-79
2024/01/08 07:02:03;;;;;;;;;25.67;25.00;;;;;0.56;54.58;102100.00;5074523;28;45943;-77
2024/01/08 07:04:29;;;;;;;;;19.67;18.33;;;;;0.91;53.85;102154.75;5072664;28;45277;-78
2024/01/08 07:06:54;;;;;;;;;15.33;14.33;;;;;0.67;54.31;102116.25;5059199;28;45069;-79
2024/01/08 07:09:19;;;;;;;;;14.33;11.33;;;;;0.66;54.01;102132.84;5095577;28;45092;-79
2024/01/08 07:11:45;;;;;;;;;26.67;19.67;;;;;0.64;53.37;102095.41;5095673;28;45774;-80
2024/01/08 07:14:10;;;;;;;;;16.67;15.33;;;;;0.99;53.01;102169.34;5099717;28;44957;-81
2024/01/08 07:16:35;;;;;;;;;25.00;19.67;;;;;0.91;53.76;102152.13;5100020;28;45246;-80
2024/01/08 07:19:01;;;;;;;;;19.67;15.00;;;;;0.50;56.61;102142.06;5097668;28;45083;-77
2024/01/08 07:21:27;;;;;;;;;25.00;21.33;;;;;0.40;57.13;102107.47;5095328;28;45239;-80
2024/01/08 07:23:53;;;;;;;;;21.33;19.67;;;;;0.79;56.43;102165.56;5094878;28;45063;-79
2024/01/08 07:26:18;;;;;;;;;24.67;23.33;;;;;0.85;56.09;102173.25;5093006;28;45229;-80
2024/01/08 07:28:45;;;;;;;;;26.33;21.00;;;;;-0.26;56.07;101971.72;5083485;27;45561;-78
2024/01/08 07:31:11;;;;;;;;;21.00;19.00;;;;;0.08;56.02;102022.13;5107123;27;45864;-80
2024/01/08 07:33:37;;;;;;;;;23.33;19.00;;;;;0.82;55.81;102123.63;5091276;27;45402;-78
2024/01/08 07:36:04;;;;;;;;;25.33;20.33;;;;;0.37;54.81;102025.59;5076658;28;45469;-80
2024/01/08 07:38:29;;;;;;;;;22.67;21.67;;;;;0.75;54.82;102080.19;5060092;28;45566;-79
2024/01/08 07:40:55;;;;;;;;;24.33;23.33;;;;;0.96;55.33;102119.69;5081665;28;46592;-80
2024/01/08 07:43:20;;;;;;;;;24.00;23.00;;;;;-0.02;55.03;101966.63;5071542;28;45200;-80
2024/01/08 07:45:45;;;;;;;;;26.00;22.33;;;;;1.04;55.48;102151.75;5064891;28;45483;-79
2024/01/08 07:48:11;;;;;;;;;23.67;21.00;;;;;0.84;55.75;102142.75;5083925;28;45513;-80
2024/01/08 07:50:36;;;;;;;;;19.67;18.67;;;;;0.97;55.65;102165.91;5086334;28;45319;-80
2024/01/08 07:53:02;;;;;;;;;24.67;21.67;;;;;1.09;56.13;102176.03;5083357;28;45438;-82
2024/01/08 07:55:27;;;;;;;;;24.33;19.67;;;;;0.99;56.32;102161.47;5088910;28;45131;-79
2024/01/08 07:57:53;;;;;;;;;17.33;15.00;;;;;1.08;55.96;102179.53;5087990;28;45458;-80
2024/01/08 08:00:20;;;;;;;;;19.67;19.33;;;;;0.81;56.27;102155.09;5075244;27;46189;-77
2024/01/08 08:02:45;;;;;;;;;22.67;21.33;;;;;0.98;56.47;102167.63;5091039;27;45546;-77
2024/01/08 08:05:11;;;;;;;;;24.67;21.67;;;;;1.00;55.97;102153.63;5069368;28;45341;-79
2024/01/08 08:07:36;;;;;;;;;17.33;14.33;;;;;1.10;55.80;102167.25;5079502;27;45320;-78
2024/01/08 08:10:02;;;;;;;;;30.67;27.00;;;;;0.89;56.57;102190.59;5069153;27;46148;-79
2024/01/08 08:12:28;;;;;;;;;24.33;21.33;;;;;0.72;57.08;102192.84;5066800;27;45568;-79
2024/01/08 08:14:53;;;;;;;;;24.00;22.00;;;;;0.78;57.57;102197.91;5088690;27;44937;-80
2024/01/08 08:17:19;;;;;;;;;25.00;19.00;;;;;0.82;56.39;102203.91;5080223;27;45331;-78
2024/01/08 08:19:45;;;;;;;;;20.33;19.33;;;;;0.74;56.45;102184.94;5057484;27;46481;-77
2024/01/08 08:22:14;;;;;;;;;32.33;28.33;;;;;0.46;57.21;102163.97;5074566;28;44885;-78
2024/01/08 08:24:40;;;;;;;;;22.00;22.00;;;;;0.78;57.28;102203.13;5092571;28;45219;-78
2024/01/08 08:27:09;;;;;;;;;18.00;14.67;;;;;0.90;56.31;102196.69;5108840;27;45265;-76
2024/01/08 08:29:37;;;;;;;;;25.67;24.33;;;;;0.53;56.40;102147.19;5092825;27;45572;-76
2024/01/08 08:32:04;;;;;;;;;26.33;18.67;;;;;0.69;55.41;102174.63;5100874;27;45308;-80
2024/01/08 08:34:29;;;;;;;;;22.00;18.67;;;;;0.94;55.31;102202.69;5097678;27;45023;-76
2024/01/08 08:36:55;;;;;;;;;25.33;22.00;;;;;0.87;55.04;102202.88;5086696;28;45182;-77
2024/01/08 08:39:20;;;;;;;;;19.00;19.00;;;;;0.89;54.71;102195.81;5095070;28;46058;-78
2024/01/08 08:41:46;;;;;;;;;17.67;12.33;;;;;0.87;55.79;102205.50;5100762;28;45132;-79
2024/01/08 08:44:12;;;;;;;;;25.00;24.00;;;;;0.35;54.06;102105.88;5099505;28;45085;-78
2024/01/08 08:46:38;;;;;;;;;22.33;22.33;;;;;0.77;54.69;102216.25;5079286;28;44859;-78
2024/01/08 08:49:05;;;;;;;;;19.67;18.00;;;;;0.43;55.96;102191.09;5073876;28;45720;-80
2024/01/08 08:51:32;;;;;;;;;17.67;17.33;;;;;0.40;55.65;102149.34;5069520;28;45371;-77
2024/01/08 08:53:59;;;;;;;;;19.33;18.33;;;;;0.68;55.29;102162.44;5073456;28;45425;-78
2024/01/08 08:56:25;;;;;;;;;18.67;18.67;;;;;1.01;55.31;102193.75;5067173;28;45451;-81
2024/01/08 08:58:50;;;;;;;;;26.00;22.67;;;;;1.25;54.87;102227.03;5037311;28;46153;-77
2024/01/08 09:01:17;;;;;;;;;23.00;21.00;;;;;1.03;55.06;102186.69;5038100;28;45257;-78
2024/01/08 09:03:43;;;;;;;;;25.67;22.33;;;;;0.97;55.33;102189.47;5063782;28;45431;-79
2024/01/08 09:06:08;;;;;;;;;32.00;28.33;;;;;1.04;55.91;102193.66;5044963;28;45437;-78
2024/01/08 09:08:34;;;;;;;;;24.67;21.00;;;;;1.20;56.48;102228.91;5057396;28;46075;-78
2024/01/08 09:10:59;;;;;;;;;24.67;23.00;;;;;1.16;56.03;102222.06;5042988;28;45391;-76
2024/01/08 09:13:24;;;;;;;;;26.00;23.33;;;;;1.31;55.74;102218.97;5069505;28;45195;-77
2024/01/08 09:15:50;;;;;;;;;32.67;27.67;;;;;1.31;55.95;102226.81;5066447;28;45336;-80
2024/01/08 09:18:16;;;;;;;;;27.33;23.67;;;;;1.29;55.98;102228.63;5067966;28;45634;-81
2024/01/08 09:20:42;;;;;;;;;27.00;20.67;;;;;1.03;56.66;102192.78;5048985;28;45221;-78
2024/01/08 09:23:07;;;;;;;;;35.33;26.00;;;;;1.05;56.70;102238.13;5063008;28;45165;-80
2024/01/08 09:25:33;;;;;;;;;34.67;26.00;;;;;0.62;59.08;102201.03;5057047;28;44932;-79
2024/01/08 09:27:59;;;;;;;;;28.33;24.00;;;;;0.50;58.30;102176.06;5075885;28;45348;-78
2024/01/08 09:30:24;;;;;;;;;31.67;24.33;;;;;0.91;57.50;102229.81;5072829;28;44993;-83
2024/01/08 09:32:50;;;;;;;;;25.33;19.33;;;;;0.96;57.46;102240.16;5083279;28;45046;-79
2024/01/08 09:35:15;;;;;;;;;12.67;12.00;;;;;0.87;56.41;102195.00;5052114;28;44947;-80
2024/01/08 09:37:41;;;;;;;;;20.67;20.67;;;;;0.89;54.89;102168.78;5079099;28;45575;-79
2024/01/08 09:40:07;;;;;;;;;24.00;20.00;;;;;0.84;54.47;102152.38;5047468;28;45151;-77
2024/01/08 09:42:33;;;;;;;;;23.67;23.00;;;;;1.10;54.07;102180.34;5057886;28;45207;-77
2024/01/08 09:45:03;;;;;;;;;21.33;19.33;;;;;1.29;54.26;102191.97;5090783;27;45017;-80
2024/01/08 09:47:30;;;;;;;;;22.33;17.33;;;;;1.21;54.20;102181.75;5112198;27;46219;-80
2024/01/08 09:49:57;;;;;;;;;23.67;21.67;;;;;0.91;52.79;102162.59;5086488;28;44940;-80
2024/01/08 09:52:23;;;;;;;;;22.67;17.00;;;;;1.27;52.37;102238.31;5055206;27;44694;-79
2024/01/08 09:54:49;;;;;;;;;10.67;10.33;;;;;1.35;52.53;102246.78;5075365;28;45080;-79
2024/01/08 09:57:15;;;;;;;;;19.33;17.67;;;;;1.39;51.46;102219.56;5092330;28;45326;-78
2024/01/08 09:59:40;;;;;;;;;14.67;11.33;;;;;0.46;50.08;102082.88;5060288;27;45434;-79
2024/01/08 10:02:15;;;;;;;;;27.67;19.33;;;;;0.84;52.45;102155.00;5086795;28;45293;-78
2024/01/08 10:04:40;;;;;;;;;25.67;19.67;;;;;1.53;52.19;102246.19;5090847;28;45104;-81
2024/01/08 10:07:07;;;;;;;;;21.33;18.67;;;;;1.66;51.32;102236.19;5085683;28;45905;-79
2024/01/08 10:09:33;;;;;;;;;21.33;19.33;;;;;1.67;51.59;102243.13;5086526;28;45348;-80
2024/01/08 10:11:58;;;;;;;;;25.33;23.00;;;;;1.30;55.28;102184.97;5071035;27;45463;-80
2024/01/08 10:14:25;;;;;;;;;28.00;22.33;;;;;1.75;56.33;102250.75;5074796;28;45298;-79
2024/01/08 10:16:55;;;;;;;;;24.33;22.67;;;;;1.85;56.53;102249.53;5073928;28;47281;-80
2024/01/08 10:19:23;;;;;;;;;29.67;25.33;;;;;1.91;56.67;102243.22;5099085;28;45102;-81
2024/01/08 10:22:07;;;;;;;;;38.33;29.00;;;;;1.81;56.93;102245.31;5076400;28;45188;-79
2024/01/08 10:24:33;;;;;;;;;33.33;23.33;;;;;1.75;58.19;102251.59;5096099;28;45139;-80
2024/01/08 10:26:59;;;;;;;;;22.67;16.00;;;;;1.33;58.37;102187.47;5088781;28;45184;-81
2024/01/08 10:29:24;;;;;;;;;25.67;24.00;;;;;1.61;57.96;102248.59;5096579;27;45041;-80
2024/01/08 10:31:50;;;;;;;;;24.33;21.00;;;;;0.89;58.07;102112.03;5078710;28;45348;-81
2024/01/08 10:34:16;;;;;;;;;29.00;20.33;;;;;1.12;59.22;102149.72;5069109;28;45165;-78
2024/01/08 10:36:44;;;;;;;;;21.33;21.00;;;;;1.73;58.96;102237.69;5095580;28;45529;-80
2024/01/08 10:39:10;;;;;;;;;10.00;10.00;;;;;1.34;58.67;102171.69;5098556;28;45007;-80
2024/01/08 10:41:36;;;;;;;;;26.67;24.33;;;;;1.61;59.78;102213.66;5098403;28;45091;-79
2024/01/08 10:44:03;;;;;;;;;23.67;23.67;;;;;1.43;61.85;102192.38;5095442;28;45231;-77
2024/01/08 10:46:38;;;;;;;;;25.67;20.00;;;;;1.47;63.17;102203.63;5089982;28;45583;-78
2024/01/08 10:49:07;;;;;;;;;27.67;26.00;;;;;1.60;61.61;102230.25;5073260;28;44988;-79
2024/01/08 10:51:40;;;;;;;;;27.00;25.33;;;;;1.57;62.16;102227.75;5097073;28;44943;-80
2024/01/08 10:54:07;;;;;;;;;25.00;23.67;;;;;1.31;62.78;102170.94;5097465;28;44856;-78
2024/01/08 10:56:33;;;;;;;;;30.33;23.00;;;;;0.71;61.17;102080.34;5057089;28;47545;-81
2024/01/08 10:59:06;;;;;;;;;22.00;17.00;;;;;1.37;62.07;102213.53;5093306;28;45175;-77
2024/01/08 11:01:32;;;;;;;;;28.33;24.33;;;;;1.07;61.33;102141.16;5071380;28;44932;-80
2024/01/08 11:04:05;;;;;;;;;27.33;25.67;;;;;1.65;61.08;102207.41;5068897;28;45219;-77
2024/01/08 11:06:33;;;;;;;;;20.50;19.50;;;;;1.74;59.92;102212.31;5072615;28;45407;-79
2024/01/08 11:09:00;;;;;;;;;20.00;17.00;;;;;1.82;59.54;102215.56;5049095;27;45579;-80
2024/01/08 11:11:26;;;;;;;;;25.33;24.00;;;;;1.84;58.64;102203.25;5075051;28;45560;-78